sensor_id;sensor_type;location;lat;lon;timestamp;P1;durP1;ratioP1;P2;durP2;ratioP2
6757;SDS011;3416;53.074;8.822;2024-03-23T00:55:37;26.33;;;6.75;;
6757;SDS011;3416;53.074;8.822;2024-03-23T00:58:03;23.98;;;5.93;;
6757;SDS011;3416;53.074;8.822;2024-03-23T01:00:30;24.90;;;7.68;;
6757;SDS011;3416;53.074;8.822;2024-03-23T01:02:56;26.52;;;7.03;;
6757;SDS011;3416;53.074;8.822;2024-03-23T01:05:23;24.70;;;6.68;;
6757;SDS011;3416;53.074;8.822;2024-03-23T01:07:49;32.27;;;9.63;;
6757;SDS011;3416;53.074;8.822;2024-03-23T01:10:16;19.55;;;6.20;;
6757;SDS011;3416;53.074;8.822;2024-03-23T01:12:43;19.70;;;6.40;;
6757;SDS011;3416;53.074;8.822;2024-03-23T01:15:11;25.17;;;7.32;;
6757;SDS011;3416;53.074;8.822;2024-03-23T01:17:37;18.03;;;5.37;;
6757;SDS011;3416;53.074;8.822;2024-03-23T01:20:04;22.08;;;6.43;;
6757;SDS011;3416;53.074;8.822;2024-03-23T01:22:31;20.75;;;5.90;;
6757;SDS011;3416;53.074;8.822;2024-03-23T01:24:58;22.63;;;7.18;;
6757;SDS011;3416;53.074;8.822;2024-03-23T01:27:24;20.98;;;5.90;;
6757;SDS011;3416;53.074;8.822;2024-03-23T01:29:52;25.92;;;6.30;;
6757;SDS011;3416;53.074;8.822;2024-03-23T01:32:18;25.25;;;6.55;;
6757;SDS011;3416;53.074;8.822;2024-03-23T01:34:45;24.55;;;5.45;;
6757;SDS011;3416;53.074;8.822;2024-03-23T01:37:11;22.63;;;6.47;;
6757;SDS011;3416;53.074;8.822;2024-03-23T01:39:38;16.65;;;6.60;;
6757;SDS011;3416;53.074;8.822;2024-03-23T01:42:04;15.63;;;4.90;;
6757;SDS011;3416;53.074;8.822;2024-03-23T01:44:31;19.85;;;5.50;;
6757;SDS011;3416;53.074;8.822;2024-03-23T01:46:58;23.43;;;6.10;;
6757;SDS011;3416;53.074;8.822;2024-03-23T01:49:25;30.33;;;6.90;;
6757;SDS011;3416;53.074;8.822;2024-03-23T01:51:51;23.23;;;8.80;;
6757;SDS011;3416;53.074;8.822;2024-03-23T01:54:18;26.92;;;5.43;;
6757;SDS011;3416;53.074;8.822;2024-03-23T01:56:44;27.30;;;7.68;;
6757;SDS011;3416;53.074;8.822;2024-03-23T01:59:12;28.65;;;7.32;;
6757;SDS011;3416;53.074;8.822;2024-03-23T02:01:38;19.17;;;5.78;;
6757;SDS011;3416;53.074;8.822;2024-03-23T02:04:07;26.67;;;6.25;;
6757;SDS011;3416;53.074;8.822;2024-03-23T02:06:34;24.95;;;6.68;;
6757;SDS011;3416;53.074;8.822;2024-03-23T02:09:01;22.23;;;7.10;;
6757;SDS011;3416;53.074;8.822;2024-03-23T02:11:29;21.67;;;6.07;;
6757;SDS011;3416;53.074;8.822;2024-03-23T02:13:56;40.72;;;12.50;;
6757;SDS011;3416;53.074;8.822;2024-03-23T02:16:22;18.30;;;6.22;;
6757;SDS011;3416;53.074;8.822;2024-03-23T02:18:48;27.92;;;7.18;;
6757;SDS011;3416;53.074;8.822;2024-03-23T02:21:16;24.07;;;7.37;;
6757;SDS011;3416;53.074;8.822;2024-03-23T02:23:44;25.70;;;7.18;;
6757;SDS011;3416;53.074;8.822;2024-03-23T02:26:10;26.10;;;6.25;;
6757;SDS011;3416;53.074;8.822;2024-03-23T02:28:39;24.38;;;5.85;;
6757;SDS011;3416;53.074;8.822;2024-03-23T02:31:05;18.30;;;7.83;;
6757;SDS011;3416;53.074;8.822;2024-03-23T02:33:32;22.52;;;5.65;;
6757;SDS011;3416;53.074;8.822;2024-03-23T02:35:59;27.00;;;6.57;;
6757;SDS011;3416;53.074;8.822;2024-03-23T02:38:26;17.73;;;6.07;;
6757;SDS011;3416;53.074;8.822;2024-03-23T02:40:53;22.20;;;5.90;;
6757;SDS011;3416;53.074;8.822;2024-03-23T02:43:20;13.07;;;5.40;;
6757;SDS011;3416;53.074;8.822;2024-03-23T02:45:46;23.07;;;5.27;;
6757;SDS011;3416;53.074;8.822;2024-03-23T02:48:13;20.98;;;5.80;;
6757;SDS011;3416;53.074;8.822;2024-03-23T02:50:39;17.60;;;5.30;;
6757;SDS011;3416;53.074;8.822;2024-03-23T02:53:06;27.40;;;7.97;;
6757;SDS011;3416;53.074;8.822;2024-03-23T02:55:32;20.80;;;6.70;;
6757;SDS011;3416;53.074;8.822;2024-03-23T02:58:00;33.83;;;7.78;;
6757;SDS011;3416;53.074;8.822;2024-03-23T03:00:27;16.95;;;6.82;;
6757;SDS011;3416;53.074;8.822;2024-03-23T03:02:54;32.63;;;7.50;;
6757;SDS011;3416;53.074;8.822;2024-03-23T03:05:21;28.95;;;7.72;;
6757;SDS011;3416;53.074;8.822;2024-03-23T03:07:48;18.95;;;4.97;;
6757;SDS011;3416;53.074;8.822;2024-03-23T03:10:14;24.57;;;7.30;;
6757;SDS011;3416;53.074;8.822;2024-03-23T03:12:41;24.23;;;5.82;;
6757;SDS011;3416;53.074;8.822;2024-03-23T03:15:09;27.20;;;5.27;;
6757;SDS011;3416;53.074;8.822;2024-03-23T03:17:35;24.58;;;7.15;;
6757;SDS011;3416;53.074;8.822;2024-03-23T03:20:01;28.27;;;7.97;;
6757;SDS011;3416;53.074;8.822;2024-03-23T03:22:30;16.27;;;5.75;;
6757;SDS011;3416;53.074;8.822;2024-03-23T03:24:55;30.40;;;7.03;;
6757;SDS011;3416;53.074;8.822;2024-03-23T03:27:22;26.85;;;7.90;;
6757;SDS011;3416;53.074;8.822;2024-03-23T03:29:49;22.48;;;7.85;;
6757;SDS011;3416;53.074;8.822;2024-03-23T03:32:17;30.80;;;6.90;;
6757;SDS011;3416;53.074;8.822;2024-03-23T03:34:43;20.55;;;5.90;;
6757;SDS011;3416;53.074;8.822;2024-03-23T03:37:10;15.85;;;5.70;;
6757;SDS011;3416;53.074;8.822;2024-03-23T03:39:36;13.93;;;6.20;;
6757;SDS011;3416;53.074;8.822;2024-03-23T03:42:03;21.83;;;5.88;;
6757;SDS011;3416;53.074;8.822;2024-03-23T03:44:31;28.08;;;7.82;;
6757;SDS011;3416;53.074;8.822;2024-03-23T03:46:59;13.18;;;5.40;;
6757;SDS011;3416;53.074;8.822;2024-03-23T03:51:51;22.77;;;5.80;;
6757;SDS011;3416;53.074;8.822;2024-03-23T03:54:18;21.35;;;6.05;;
6757;SDS011;3416;53.074;8.822;2024-03-23T03:56:46;27.15;;;6.45;;
6757;SDS011;3416;53.074;8.822;2024-03-23T03:59:14;28.15;;;8.95;;
6757;SDS011;3416;53.074;8.822;2024-03-23T04:01:49;23.08;;;7.05;;
6757;SDS011;3416;53.074;8.822;2024-03-23T04:04:17;23.70;;;8.30;;
6757;SDS011;3416;53.074;8.822;2024-03-23T04:06:43;33.28;;;5.70;;
6757;SDS011;3416;53.074;8.822;2024-03-23T04:09:14;16.33;;;5.63;;
6757;SDS011;3416;53.074;8.822;2024-03-23T04:11:40;33.30;;;8.88;;
6757;SDS011;3416;53.074;8.822;2024-03-23T04:14:08;23.05;;;6.20;;
6757;SDS011;3416;53.074;8.822;2024-03-23T04:16:41;38.80;;;7.40;;
6757;SDS011;3416;53.074;8.822;2024-03-23T04:19:08;22.88;;;6.25;;
6757;SDS011;3416;53.074;8.822;2024-03-23T04:21:34;36.25;;;6.38;;
6757;SDS011;3416;53.074;8.822;2024-03-23T04:24:02;28.95;;;7.63;;
6757;SDS011;3416;53.074;8.822;2024-03-23T04:26:30;34.80;;;8.50;;
6757;SDS011;3416;53.074;8.822;2024-03-23T04:29:06;23.20;;;7.00;;
6757;SDS011;3416;53.074;8.822;2024-03-23T04:31:32;27.30;;;6.63;;
6757;SDS011;3416;53.074;8.822;2024-03-23T04:34:02;19.27;;;7.00;;
6757;SDS011;3416;53.074;8.822;2024-03-23T04:36:28;28.02;;;9.90;;
6757;SDS011;3416;53.074;8.822;2024-03-23T04:38:56;20.00;;;5.53;;
6757;SDS011;3416;53.074;8.822;2024-03-23T04:41:24;20.13;;;6.93;;
6757;SDS011;3416;53.074;8.822;2024-03-23T04:43:52;19.58;;;5.47;;
6757;SDS011;3416;53.074;8.822;2024-03-23T04:46:20;27.02;;;6.97;;
6757;SDS011;3416;53.074;8.822;2024-03-23T04:48:47;31.52;;;7.40;;
6757;SDS011;3416;53.074;8.822;2024-03-23T04:51:19;26.27;;;5.95;;
6757;SDS011;3416;53.074;8.822;2024-03-23T04:53:47;22.92;;;6.53;;
6757;SDS011;3416;53.074;8.822;2024-03-23T04:56:14;29.98;;;7.28;;
6757;SDS011;3416;53.074;8.822;2024-03-23T04:58:42;27.50;;;8.27;;
6757;SDS011;3416;53.074;8.822;2024-03-23T05:01:10;25.77;;;6.22;;
6757;SDS011;3416;53.074;8.822;2024-03-23T05:03:37;28.92;;;6.65;;
6757;SDS011;3416;53.074;8.822;2024-03-23T05:06:04;21.88;;;6.65;;
6757;SDS011;3416;53.074;8.822;2024-03-23T05:08:31;36.67;;;6.05;;
6757;SDS011;3416;53.074;8.822;2024-03-23T05:10:57;19.30;;;6.22;;
6757;SDS011;3416;53.074;8.822;2024-03-23T05:13:24;25.67;;;6.20;;
6757;SDS011;3416;53.074;8.822;2024-03-23T05:15:51;29.77;;;7.75;;
6757;SDS011;3416;53.074;8.822;2024-03-23T05:18:20;23.27;;;5.65;;
6757;SDS011;3416;53.074;8.822;2024-03-23T05:20:46;23.00;;;6.53;;
6757;SDS011;3416;53.074;8.822;2024-03-23T05:23:13;15.90;;;4.60;;
6757;SDS011;3416;53.074;8.822;2024-03-23T05:25:39;18.27;;;6.32;;
6757;SDS011;3416;53.074;8.822;2024-03-23T05:28:06;20.95;;;5.70;;
6757;SDS011;3416;53.074;8.822;2024-03-23T05:30:33;24.60;;;6.78;;
6757;SDS011;3416;53.074;8.822;2024-03-23T05:32:59;18.98;;;6.57;;
6757;SDS011;3416;53.074;8.822;2024-03-23T05:35:27;25.15;;;6.93;;
6757;SDS011;3416;53.074;8.822;2024-03-23T05:37:53;19.98;;;5.85;;
6757;SDS011;3416;53.074;8.822;2024-03-23T05:40:20;17.77;;;5.18;;
6757;SDS011;3416;53.074;8.822;2024-03-23T05:42:46;24.83;;;6.38;;
6757;SDS011;3416;53.074;8.822;2024-03-23T05:45:14;22.40;;;6.97;;
6757;SDS011;3416;53.074;8.822;2024-03-23T05:47:43;19.85;;;7.22;;
6757;SDS011;3416;53.074;8.822;2024-03-23T05:50:10;30.35;;;6.72;;
6757;SDS011;3416;53.074;8.822;2024-03-23T05:52:39;22.73;;;6.05;;
6757;SDS011;3416;53.074;8.822;2024-03-23T05:55:08;27.92;;;7.13;;
6757;SDS011;3416;53.074;8.822;2024-03-23T05:57:34;21.92;;;6.57;;
6757;SDS011;3416;53.074;8.822;2024-03-23T06:00:01;18.67;;;6.25;;
6757;SDS011;3416;53.074;8.822;2024-03-23T06:02:29;17.10;;;7.45;;
6757;SDS011;3416;53.074;8.822;2024-03-23T06:04:56;17.30;;;5.07;;
6757;SDS011;3416;53.074;8.822;2024-03-23T06:07:22;30.43;;;7.77;;
6757;SDS011;3416;53.074;8.822;2024-03-23T06:09:50;19.20;;;7.80;;
6757;SDS011;3416;53.074;8.822;2024-03-23T06:12:16;19.25;;;6.18;;
6757;SDS011;3416;53.074;8.822;2024-03-23T06:14:43;29.08;;;5.85;;
6757;SDS011;3416;53.074;8.822;2024-03-23T06:17:09;22.43;;;5.40;;
6757;SDS011;3416;53.074;8.822;2024-03-23T06:19:36;21.65;;;5.82;;
6757;SDS011;3416;53.074;8.822;2024-03-23T06:22:02;32.27;;;6.73;;
6757;SDS011;3416;53.074;8.822;2024-03-23T06:24:31;23.40;;;6.30;;
6757;SDS011;3416;53.074;8.822;2024-03-23T06:26:59;12.63;;;5.27;;
6757;SDS011;3416;53.074;8.822;2024-03-23T06:29:26;20.23;;;6.53;;
6757;SDS011;3416;53.074;8.822;2024-03-23T06:31:53;14.63;;;5.17;;
6757;SDS011;3416;53.074;8.822;2024-03-23T06:34:20;21.30;;;5.10;;
6757;SDS011;3416;53.074;8.822;2024-03-23T06:36:47;29.52;;;6.22;;
6757;SDS011;3416;53.074;8.822;2024-03-23T06:39:14;13.50;;;5.00;;
6757;SDS011;3416;53.074;8.822;2024-03-23T06:41:40;14.10;;;4.63;;
6757;SDS011;3416;53.074;8.822;2024-03-23T06:44:08;21.08;;;6.25;;
6757;SDS011;3416;53.074;8.822;2024-03-23T06:46:34;19.40;;;5.43;;
6757;SDS011;3416;53.074;8.822;2024-03-23T06:49:01;9.50;;;4.57;;
6757;SDS011;3416;53.074;8.822;2024-03-23T06:51:28;13.70;;;4.70;;
6757;SDS011;3416;53.074;8.822;2024-03-23T06:53:55;21.43;;;5.50;;
6757;SDS011;3416;53.074;8.822;2024-03-23T06:56:21;17.93;;;4.90;;
6757;SDS011;3416;53.074;8.822;2024-03-23T06:58:48;17.40;;;5.10;;
6757;SDS011;3416;53.074;8.822;2024-03-23T07:01:15;17.10;;;5.07;;
6757;SDS011;3416;53.074;8.822;2024-03-23T07:03:42;13.53;;;4.40;;
6757;SDS011;3416;53.074;8.822;2024-03-23T07:06:09;19.50;;;4.93;;
6757;SDS011;3416;53.074;8.822;2024-03-23T07:08:36;10.57;;;4.37;;
6757;SDS011;3416;53.074;8.822;2024-03-23T07:11:02;22.30;;;5.27;;
6757;SDS011;3416;53.074;8.822;2024-03-23T07:13:30;14.97;;;4.50;;
6757;SDS011;3416;53.074;8.822;2024-03-23T07:15:56;18.93;;;4.50;;
6757;SDS011;3416;53.074;8.822;2024-03-23T07:18:26;15.87;;;4.80;;
6757;SDS011;3416;53.074;8.822;2024-03-23T07:20:53;18.63;;;5.27;;
6757;SDS011;3416;53.074;8.822;2024-03-23T07:23:20;13.73;;;4.30;;
6757;SDS011;3416;53.074;8.822;2024-03-23T07:25:57;15.97;;;4.80;;
6757;SDS011;3416;53.074;8.822;2024-03-23T07:28:24;14.70;;;4.83;;
6757;SDS011;3416;53.074;8.822;2024-03-23T07:31:03;24.37;;;5.63;;
6757;SDS011;3416;53.074;8.822;2024-03-23T07:33:32;14.43;;;5.17;;
6757;SDS011;3416;53.074;8.822;2024-03-23T07:36:00;13.50;;;4.10;;
6757;SDS011;3416;53.074;8.822;2024-03-23T07:38:27;13.23;;;4.60;;
6757;SDS011;3416;53.074;8.822;2024-03-23T07:41:21;16.33;;;5.00;;
6757;SDS011;3416;53.074;8.822;2024-03-23T07:43:48;11.17;;;4.43;;
6757;SDS011;3416;53.074;8.822;2024-03-23T07:46:18;17.67;;;6.30;;
6757;SDS011;3416;53.074;8.822;2024-03-23T07:48:50;15.40;;;4.20;;
6757;SDS011;3416;53.074;8.822;2024-03-23T07:51:20;12.13;;;4.63;;
6757;SDS011;3416;53.074;8.822;2024-03-23T07:53:48;12.93;;;4.20;;
6757;SDS011;3416;53.074;8.822;2024-03-23T07:56:15;13.50;;;4.20;;
6757;SDS011;3416;53.074;8.822;2024-03-23T07:58:45;13.33;;;6.10;;
6757;SDS011;3416;53.074;8.822;2024-03-23T08:01:12;12.33;;;4.03;;
6757;SDS011;3416;53.074;8.822;2024-03-23T08:03:40;20.73;;;4.47;;
6757;SDS011;3416;53.074;8.822;2024-03-23T08:06:10;14.30;;;4.10;;
6757;SDS011;3416;53.074;8.822;2024-03-23T08:08:36;13.00;;;4.23;;
6757;SDS011;3416;53.074;8.822;2024-03-23T08:11:04;16.60;;;5.70;;
6757;SDS011;3416;53.074;8.822;2024-03-23T08:13:31;19.97;;;7.20;;
6757;SDS011;3416;53.074;8.822;2024-03-23T08:15:58;13.40;;;5.00;;
6757;SDS011;3416;53.074;8.822;2024-03-23T08:18:25;10.63;;;4.57;;
6757;SDS011;3416;53.074;8.822;2024-03-23T08:20:56;14.60;;;4.13;;
6757;SDS011;3416;53.074;8.822;2024-03-23T08:23:24;14.87;;;4.33;;
6757;SDS011;3416;53.074;8.822;2024-03-23T08:25:52;15.97;;;4.73;;
6757;SDS011;3416;53.074;8.822;2024-03-23T08:28:23;10.50;;;4.43;;
6757;SDS011;3416;53.074;8.822;2024-03-23T08:30:50;15.63;;;4.50;;
6757;SDS011;3416;53.074;8.822;2024-03-23T08:33:16;10.90;;;3.20;;
6757;SDS011;3416;53.074;8.822;2024-03-23T08:35:43;11.20;;;4.00;;
6757;SDS011;3416;53.074;8.822;2024-03-23T08:38:18;13.27;;;4.33;;
6757;SDS011;3416;53.074;8.822;2024-03-23T08:40:47;11.53;;;3.97;;
6757;SDS011;3416;53.074;8.822;2024-03-23T08:43:13;14.93;;;4.60;;
6757;SDS011;3416;53.074;8.822;2024-03-23T08:45:40;14.73;;;5.70;;
6757;SDS011;3416;53.074;8.822;2024-03-23T08:48:06;14.27;;;4.77;;
6757;SDS011;3416;53.074;8.822;2024-03-23T08:50:34;17.45;;;3.38;;
6757;SDS011;3416;53.074;8.822;2024-03-23T08:53:00;8.93;;;3.80;;
6757;SDS011;3416;53.074;8.822;2024-03-23T08:55:28;9.77;;;3.00;;
6757;SDS011;3416;53.074;8.822;2024-03-23T08:57:56;9.33;;;3.30;;
6757;SDS011;3416;53.074;8.822;2024-03-23T09:00:23;12.00;;;4.73;;
6757;SDS011;3416;53.074;8.822;2024-03-23T09:02:49;10.13;;;3.43;;
6757;SDS011;3416;53.074;8.822;2024-03-23T09:05:16;12.93;;;2.43;;
6757;SDS011;3416;53.074;8.822;2024-03-23T09:07:42;13.17;;;3.97;;
6757;SDS011;3416;53.074;8.822;2024-03-23T09:10:09;9.40;;;3.93;;
6757;SDS011;3416;53.074;8.822;2024-03-23T09:12:35;14.30;;;3.17;;
6757;SDS011;3416;53.074;8.822;2024-03-23T09:15:04;7.20;;;3.80;;
6757;SDS011;3416;53.074;8.822;2024-03-23T09:17:31;16.23;;;3.70;;
6757;SDS011;3416;53.074;8.822;2024-03-23T09:19:58;14.60;;;2.90;;
6757;SDS011;3416;53.074;8.822;2024-03-23T09:22:24;12.13;;;3.70;;
6757;SDS011;3416;53.074;8.822;2024-03-23T09:24:51;7.30;;;2.90;;
6757;SDS011;3416;53.074;8.822;2024-03-23T09:27:17;8.77;;;2.77;;
6757;SDS011;3416;53.074;8.822;2024-03-23T09:29:44;12.13;;;3.00;;
6757;SDS011;3416;53.074;8.822;2024-03-23T09:32:11;11.30;;;3.10;;
6757;SDS011;3416;53.074;8.822;2024-03-23T09:34:39;9.55;;;2.63;;
6757;SDS011;3416;53.074;8.822;2024-03-23T09:37:05;17.43;;;5.40;;
6757;SDS011;3416;53.074;8.822;2024-03-23T09:39:32;10.02;;;3.45;;
6757;SDS011;3416;53.074;8.822;2024-03-23T09:41:58;13.97;;;2.60;;
6757;SDS011;3416;53.074;8.822;2024-03-23T09:44:25;13.13;;;3.42;;
6757;SDS011;3416;53.074;8.822;2024-03-23T09:46:54;13.30;;;2.95;;
6757;SDS011;3416;53.074;8.822;2024-03-23T09:49:23;10.10;;;3.42;;
6757;SDS011;3416;53.074;8.822;2024-03-23T09:54:53;10.57;;;3.85;;
6757;SDS011;3416;53.074;8.822;2024-03-23T09:58:09;7.93;;;3.08;;
6757;SDS011;3416;53.074;8.822;2024-03-23T12:01:23;5.72;;;2.00;;
6757;SDS011;3416;53.074;8.822;2024-03-23T12:03:51;5.00;;;1.75;;
6757;SDS011;3416;53.074;8.822;2024-03-23T12:06:19;3.25;;;1.88;;
6757;SDS011;3416;53.074;8.822;2024-03-23T12:08:46;3.13;;;1.77;;
6757;SDS011;3416;53.074;8.822;2024-03-23T12:11:14;4.60;;;2.25;;
6757;SDS011;3416;53.074;8.822;2024-03-23T12:13:43;5.75;;;1.85;;
6757;SDS011;3416;53.074;8.822;2024-03-23T12:16:12;9.68;;;4.13;;
6757;SDS011;3416;53.074;8.822;2024-03-23T12:18:43;4.07;;;1.90;;
6757;SDS011;3416;53.074;8.822;2024-03-23T12:21:10;3.85;;;1.90;;
6757;SDS011;3416;53.074;8.822;2024-03-23T12:23:38;4.97;;;1.88;;
6757;SDS011;3416;53.074;8.822;2024-03-23T12:26:07;8.57;;;2.28;;
6757;SDS011;3416;53.074;8.822;2024-03-23T12:28:37;4.60;;;2.55;;
6757;SDS011;3416;53.074;8.822;2024-03-23T12:31:03;5.70;;;1.40;;
6757;SDS011;3416;53.074;8.822;2024-03-23T12:33:32;6.18;;;2.95;;
6757;SDS011;3416;53.074;8.822;2024-03-23T12:35:59;1.92;;;1.30;;
6757;SDS011;3416;53.074;8.822;2024-03-23T12:38:28;2.28;;;1.27;;
6757;SDS011;3416;53.074;8.822;2024-03-23T12:40:54;4.65;;;1.00;;
6757;SDS011;3416;53.074;8.822;2024-03-23T12:43:21;2.95;;;1.42;;
6757;SDS011;3416;53.074;8.822;2024-03-23T12:45:49;2.47;;;1.20;;
6757;SDS011;3416;53.074;8.822;2024-03-23T12:48:20;3.63;;;1.35;;
6757;SDS011;3416;53.074;8.822;2024-03-23T12:50:47;3.47;;;0.90;;
6757;SDS011;3416;53.074;8.822;2024-03-23T12:53:24;5.30;;;1.25;;
6757;SDS011;3416;53.074;8.822;2024-03-23T12:55:51;1.90;;;0.82;;
6757;SDS011;3416;53.074;8.822;2024-03-23T12:58:19;2.25;;;1.30;;
6757;SDS011;3416;53.074;8.822;2024-03-23T13:00:45;2.75;;;0.82;;
6757;SDS011;3416;53.074;8.822;2024-03-23T13:03:14;2.45;;;1.15;;
6757;SDS011;3416;53.074;8.822;2024-03-23T13:05:40;1.95;;;1.00;;
6757;SDS011;3416;53.074;8.822;2024-03-23T13:08:11;3.08;;;1.20;;
6757;SDS011;3416;53.074;8.822;2024-03-23T13:10:39;3.15;;;1.15;;
6757;SDS011;3416;53.074;8.822;2024-03-23T13:13:08;3.00;;;1.27;;
6757;SDS011;3416;53.074;8.822;2024-03-23T13:15:34;3.97;;;1.53;;
6757;SDS011;3416;53.074;8.822;2024-03-23T13:18:01;4.03;;;1.05;;
6757;SDS011;3416;53.074;8.822;2024-03-23T13:20:27;4.88;;;1.23;;
6757;SDS011;3416;53.074;8.822;2024-03-23T13:22:54;7.43;;;4.07;;
6757;SDS011;3416;53.074;8.822;2024-03-23T13:25:20;3.50;;;1.50;;
6757;SDS011;3416;53.074;8.822;2024-03-23T13:27:49;4.38;;;2.20;;
6757;SDS011;3416;53.074;8.822;2024-03-23T13:30:15;3.50;;;1.58;;
6757;SDS011;3416;53.074;8.822;2024-03-23T13:32:42;4.30;;;1.27;;
6757;SDS011;3416;53.074;8.822;2024-03-23T13:35:08;4.57;;;1.60;;
6757;SDS011;3416;53.074;8.822;2024-03-23T13:37:35;4.68;;;2.05;;
6757;SDS011;3416;53.074;8.822;2024-03-23T13:40:01;5.25;;;1.90;;
6757;SDS011;3416;53.074;8.822;2024-03-23T13:42:28;4.10;;;1.90;;
6757;SDS011;3416;53.074;8.822;2024-03-23T13:44:56;2.23;;;1.43;;
6757;SDS011;3416;53.074;8.822;2024-03-23T13:47:23;2.97;;;1.42;;
6757;SDS011;3416;53.074;8.822;2024-03-23T13:49:49;3.70;;;1.60;;
6757;SDS011;3416;53.074;8.822;2024-03-23T13:52:16;4.70;;;1.90;;
6757;SDS011;3416;53.074;8.822;2024-03-23T13:54:47;7.55;;;2.33;;
6757;SDS011;3416;53.074;8.822;2024-03-23T13:57:15;6.35;;;2.17;;
6757;SDS011;3416;53.074;8.822;2024-03-23T13:59:42;6.15;;;2.25;;
6757;SDS011;3416;53.074;8.822;2024-03-23T14:02:10;4.57;;;2.08;;
6757;SDS011;3416;53.074;8.822;2024-03-23T14:04:39;5.30;;;1.80;;
6757;SDS011;3416;53.074;8.822;2024-03-23T14:07:06;4.55;;;2.08;;
6757;SDS011;3416;53.074;8.822;2024-03-23T14:09:32;9.43;;;2.93;;
6757;SDS011;3416;53.074;8.822;2024-03-23T14:12:00;4.07;;;2.05;;
6757;SDS011;3416;53.074;8.822;2024-03-23T14:14:26;2.60;;;1.97;;
6757;SDS011;3416;53.074;8.822;2024-03-23T14:16:53;5.45;;;2.20;;
6757;SDS011;3416;53.074;8.822;2024-03-23T14:19:20;4.73;;;2.13;;
6757;SDS011;3416;53.074;8.822;2024-03-23T14:21:47;4.47;;;1.98;;
6757;SDS011;3416;53.074;8.822;2024-03-23T14:24:13;3.47;;;2.00;;
6757;SDS011;3416;53.074;8.822;2024-03-23T14:26:40;5.65;;;2.22;;
6757;SDS011;3416;53.074;8.822;2024-03-23T14:29:07;2.75;;;1.30;;
6757;SDS011;3416;53.074;8.822;2024-03-23T14:31:34;3.15;;;1.83;;
6757;SDS011;3416;53.074;8.822;2024-03-23T14:34:00;5.18;;;1.70;;
6757;SDS011;3416;53.074;8.822;2024-03-23T14:36:29;7.22;;;1.67;;
6757;SDS011;3416;53.074;8.822;2024-03-23T14:38:54;3.55;;;1.70;;
6757;SDS011;3416;53.074;8.822;2024-03-23T14:41:22;4.97;;;1.88;;
6757;SDS011;3416;53.074;8.822;2024-03-23T14:43:48;10.30;;;1.60;;
6757;SDS011;3416;53.074;8.822;2024-03-23T14:46:16;4.78;;;2.45;;
6757;SDS011;3416;53.074;8.822;2024-03-23T14:48:43;4.70;;;1.70;;
6757;SDS011;3416;53.074;8.822;2024-03-23T14:51:11;3.95;;;1.52;;
6757;SDS011;3416;53.074;8.822;2024-03-23T14:53:39;3.85;;;1.45;;
6757;SDS011;3416;53.074;8.822;2024-03-23T14:56:07;2.13;;;1.60;;
6757;SDS011;3416;53.074;8.822;2024-03-23T14:58:35;4.65;;;1.63;;
6757;SDS011;3416;53.074;8.822;2024-03-23T15:01:02;4.55;;;1.30;;
6757;SDS011;3416;53.074;8.822;2024-03-23T15:03:29;2.45;;;1.60;;
6757;SDS011;3416;53.074;8.822;2024-03-23T15:05:56;5.50;;;1.95;;
6757;SDS011;3416;53.074;8.822;2024-03-23T15:08:23;2.10;;;1.33;;
6757;SDS011;3416;53.074;8.822;2024-03-23T15:10:52;6.47;;;1.52;;
6757;SDS011;3416;53.074;8.822;2024-03-23T15:13:20;3.17;;;1.30;;
6757;SDS011;3416;53.074;8.822;2024-03-23T15:15:49;7.30;;;1.55;;
6757;SDS011;3416;53.074;8.822;2024-03-23T15:18:22;3.10;;;1.35;;
6757;SDS011;3416;53.074;8.822;2024-03-23T15:20:52;8.27;;;1.45;;
6757;SDS011;3416;53.074;8.822;2024-03-23T15:23:19;5.38;;;2.03;;
6757;SDS011;3416;53.074;8.822;2024-03-23T15:25:53;5.22;;;1.48;;
6757;SDS011;3416;53.074;8.822;2024-03-23T15:28:19;4.38;;;1.20;;
6757;SDS011;3416;53.074;8.822;2024-03-23T15:30:46;3.20;;;1.20;;
6757;SDS011;3416;53.074;8.822;2024-03-23T15:33:12;1.42;;;1.00;;
6757;SDS011;3416;53.074;8.822;2024-03-23T15:35:39;2.00;;;1.50;;
6757;SDS011;3416;53.074;8.822;2024-03-23T15:38:05;3.53;;;1.13;;
6757;SDS011;3416;53.074;8.822;2024-03-23T15:40:33;1.95;;;1.70;;
6757;SDS011;3416;53.074;8.822;2024-03-23T15:43:00;3.35;;;2.00;;
6757;SDS011;3416;53.074;8.822;2024-03-23T15:45:27;6.28;;;2.22;;
6757;SDS011;3416;53.074;8.822;2024-03-23T15:47:53;8.37;;;3.07;;
6757;SDS011;3416;53.074;8.822;2024-03-23T15:50:22;6.18;;;2.50;;
6757;SDS011;3416;53.074;8.822;2024-03-23T15:52:48;4.90;;;2.67;;
6757;SDS011;3416;53.074;8.822;2024-03-23T15:55:15;5.60;;;2.08;;
6757;SDS011;3416;53.074;8.822;2024-03-23T15:57:41;4.00;;;2.15;;
6757;SDS011;3416;53.074;8.822;2024-03-23T16:00:13;4.35;;;2.08;;
6757;SDS011;3416;53.074;8.822;2024-03-23T16:02:40;5.20;;;1.75;;
6757;SDS011;3416;53.074;8.822;2024-03-23T16:05:07;7.53;;;2.72;;
6757;SDS011;3416;53.074;8.822;2024-03-23T16:07:36;5.35;;;1.85;;
6757;SDS011;3416;53.074;8.822;2024-03-23T16:10:04;6.20;;;2.10;;
6757;SDS011;3416;53.074;8.822;2024-03-23T16:12:34;7.05;;;1.60;;
6757;SDS011;3416;53.074;8.822;2024-03-23T16:15:01;5.18;;;2.00;;
6757;SDS011;3416;53.074;8.822;2024-03-23T16:17:29;2.85;;;1.45;;
6757;SDS011;3416;53.074;8.822;2024-03-23T16:20:00;5.25;;;2.20;;
6757;SDS011;3416;53.074;8.822;2024-03-23T16:22:27;7.15;;;2.60;;
6757;SDS011;3416;53.074;8.822;2024-03-23T16:24:54;6.45;;;2.45;;
6757;SDS011;3416;53.074;8.822;2024-03-23T16:27:20;8.00;;;3.10;;
6757;SDS011;3416;53.074;8.822;2024-03-23T16:29:47;4.25;;;1.75;;
6757;SDS011;3416;53.074;8.822;2024-03-23T16:32:13;2.60;;;1.70;;
6757;SDS011;3416;53.074;8.822;2024-03-23T16:34:43;4.68;;;2.03;;
6757;SDS011;3416;53.074;8.822;2024-03-23T16:37:09;5.03;;;1.90;;
6757;SDS011;3416;53.074;8.822;2024-03-23T16:39:37;8.10;;;2.50;;
6757;SDS011;3416;53.074;8.822;2024-03-23T16:42:03;6.25;;;2.92;;
6757;SDS011;3416;53.074;8.822;2024-03-23T16:44:30;6.72;;;2.85;;
6757;SDS011;3416;53.074;8.822;2024-03-23T16:46:56;6.93;;;2.35;;
6757;SDS011;3416;53.074;8.822;2024-03-23T16:49:23;4.30;;;3.55;;
6757;SDS011;3416;53.074;8.822;2024-03-23T16:51:52;5.47;;;2.38;;
6757;SDS011;3416;53.074;8.822;2024-03-23T16:54:19;4.97;;;2.38;;
6757;SDS011;3416;53.074;8.822;2024-03-23T16:56:45;7.32;;;3.22;;
6757;SDS011;3416;53.074;8.822;2024-03-23T16:59:12;3.28;;;2.13;;
6757;SDS011;3416;53.074;8.822;2024-03-23T17:01:39;5.55;;;2.53;;
6757;SDS011;3416;53.074;8.822;2024-03-23T17:04:09;7.45;;;2.53;;
6757;SDS011;3416;53.074;8.822;2024-03-23T17:06:35;5.10;;;2.88;;
6757;SDS011;3416;53.074;8.822;2024-03-23T17:09:05;10.55;;;3.03;;
6757;SDS011;3416;53.074;8.822;2024-03-23T17:11:31;6.63;;;2.60;;
6757;SDS011;3416;53.074;8.822;2024-03-23T17:13:58;6.55;;;2.70;;
6757;SDS011;3416;53.074;8.822;2024-03-23T17:16:25;8.03;;;1.73;;
6757;SDS011;3416;53.074;8.822;2024-03-23T17:18:56;6.80;;;2.22;;
6757;SDS011;3416;53.074;8.822;2024-03-23T17:21:22;5.90;;;3.10;;
6757;SDS011;3416;53.074;8.822;2024-03-23T17:23:49;9.73;;;1.92;;
6757;SDS011;3416;53.074;8.822;2024-03-23T17:26:17;3.97;;;1.80;;
6757;SDS011;3416;53.074;8.822;2024-03-23T17:28:45;3.75;;;2.03;;
6757;SDS011;3416;53.074;8.822;2024-03-23T17:31:14;7.28;;;2.42;;
6757;SDS011;3416;53.074;8.822;2024-03-23T17:33:43;6.35;;;3.72;;
6757;SDS011;3416;53.074;8.822;2024-03-23T17:36:09;3.42;;;2.25;;
6757;SDS011;3416;53.074;8.822;2024-03-23T17:38:36;9.70;;;2.92;;
6757;SDS011;3416;53.074;8.822;2024-03-23T17:41:03;6.07;;;2.78;;
6757;SDS011;3416;53.074;8.822;2024-03-23T17:43:31;5.85;;;2.15;;
6757;SDS011;3416;53.074;8.822;2024-03-23T17:45:58;7.93;;;2.47;;
6757;SDS011;3416;53.074;8.822;2024-03-23T17:48:26;10.40;;;2.70;;
6757;SDS011;3416;53.074;8.822;2024-03-23T17:51:00;6.43;;;2.40;;
6757;SDS011;3416;53.074;8.822;2024-03-23T17:53:28;9.70;;;5.82;;
6757;SDS011;3416;53.074;8.822;2024-03-23T17:55:54;5.65;;;2.92;;
6757;SDS011;3416;53.074;8.822;2024-03-23T17:58:21;3.17;;;1.80;;
6757;SDS011;3416;53.074;8.822;2024-03-23T18:00:48;13.93;;;3.83;;
6757;SDS011;3416;53.074;8.822;2024-03-23T18:03:15;3.28;;;2.10;;
6757;SDS011;3416;53.074;8.822;2024-03-23T18:05:41;7.70;;;3.03;;
6757;SDS011;3416;53.074;8.822;2024-03-23T18:08:08;5.75;;;2.55;;
6757;SDS011;3416;53.074;8.822;2024-03-23T18:10:34;6.10;;;1.60;;